Championnat de France France

Rallye Vosges – Grand-Est 2021 : Le point après trois spéciales !

C’est la grosse bagarre sur les routes des Vosges depuis l’ES1 et après trois chronos Bonato et Camilli sont séparé que de sept secondes. Derrière Giordano est décroché et déjà à 22 secondes. Gilbert et Wagner sont en dessous de la minute mais le trou est déjà fait !

Cédric Robert hausse son Alpine dans le top dix et marque les esprits après un magnifique sixième temps dans l’ES3.

Ca bagarre à tous les étages, car en RC4 Lefebvre et Fotia font voler les auto et mènent la danse. C’est un duel et une opposition entre l’Opel et la Clio qui est arbitrée par la première des 208 Rally Cup de Franceschi qui a fort à faire avec le revenant Margaillan qui signe le scratch dans l’ES3.

En Clio Trophy France on prend les mêmes et on recommence, Chauffray, Di Fante et Fostier sont à la bagarre et rien n’est fait même si 15 secondes séparent les trois hommes.

Prochaine spéciale dès 15 h 16 !

CLASSEMENT SCRATCH (En cours)

CLN° EQUIPAGE VOITURE GROUPE CLASSE TEMPS
11BONATO YoannBOULLOUD BenjaminCitroën C3R526:25:0
22CAMILLI EricROCHE RomainCitroën C3R526:32:4+ 00:07.4+ 00:07.4
33GIORDANO QuentinPARENT KévinVolkswagen Polo GTIR526:47:5+ 00:22.5+ 00:15.1
44GILBERT QuentinGUIEU ChristopherFord FiestaR527:04:0+ 00:39.0+ 00:16.5
55WAGNER WilliamMILLET KévinCitroën C3R527:07:1+ 00:42.1+ 00:03.1
68MAUFFREY EricBRONNER KévinSkoda Fabia Rally2 EvoR527:32:5+ 01:07.5+ 00:25.4
711MILLET DenisANGONIN BertrandVolkswagen Polo GTIR527:35:0+ 01:10.0+ 00:02.5
87BERFA JordanBONHOMME FranckHyundai i20R527:45:8+ 01:20.8+ 00:10.8
923ROBERT CédricDUVAL MatthieuAlpine A110RGT1627:45:9+ 01:20.9+ 00:00.1
106ROCHE PierreROCHE MartineCitroën C3R528:05:1+ 01:40.1+ 00:19.2
1110ROUILLARD PatrickZAZURCA GuilhemSkoda FabiaR528:12:8+ 01:47.8+ 00:07.7
1229FOTIA AnthonySIRUGUE DidierRenault Clio RS LineRC428:25:2+ 02:00.2+ 00:12.4
139POTTY MaximeDUMONT LoicFord FiestaR528:28:9+ 02:03.9+ 00:03.7
1428LEFEBVRE StéphaneDE TURCKHEIM GillesOpel Corsa GS LineRC428:29:3+ 02:04.3+ 00:00.4
1516MARCHAL Jean-RenaudPRESSAC JulienCitroën C3R528:38:0+ 02:13.0+ 00:08.7
1632FRANCESCHI MathieuBAUD LuciePeugeot 208 Rally 4RC428:48:0+ 02:23.0+ 00:10.0
1712EDEL DavidCHOFFEL PaulineVolkswagen Polo GTI Rally 2R528:57:6+ 02:32.6+ 00:09.6
1835LOUVEL HugoVILLANI Jean-RenéPeugeot 208 Rally 4RC428:57:8+ 02:32.8+ 00:00.2
1939ALMEIDA PedroMAGALHAES HugoPeugeot 208 Rally 4RC429:03:6+ 02:38.6+ 00:05.8
2033MARGAILLAN HugoMARSAULT LaetitiaPeugeot 208 Rally 4RC429:09:5+ 02:44.5+ 00:05.9
2115GIROUX LucLOUP JulienFord FiestaR529:13:2+ 02:48.2+ 00:03.7
2221COLNEY ThierryZINGLE FlorianSkoda FabiaR529:19:7+ 02:54.7+ 00:06.5
2345CHAUFFRAY ThomasVAULTIER PaulineRenault Clio RS LineRC529:27:7+ 03:02.7+ 00:08.0
2446DI-FANTE RomainCHIAPPE PatrickRenault Clio RS LineRC529:37:7+ 03:12.7+ 00:10.0
2549FOSTIER RomainABCHICHE OphélieRenault Clio RS LineRC529:42:5+ 03:17.5+ 00:04.8
2691ANACLETO ThomasSTIRLING MarieRenault Clio Super 1600FA6K29:47:3+ 03:22.3+ 00:04.8
2717ROUSSEL FrédéricPLANQUE LoicCitroën DS3R529:51:2+ 03:26.2+ 00:03.9
2858BRAESCH MaximeANDRE LoïckRenault Clio RS LineRC529:53:1+ 03:28.1+ 00:01.9
2955STIRLING BenjaminWEHREY FlorenceRenault Clio RS LineRC530:01:2+ 03:36.2+ 00:08.1
3018PEREIRA ArmandoTUTELAIRE RémiFord Fiesta WRCA8W30:06:1+ 03:41.1+ 00:04.9
3119VAUTHIER AlainNOLLET StevieFord Fiesta WRCA8W30:12:2+ 03:47.2+ 00:06.1
3247MASSE AntoineDUBOS EdouardRenault Clio RS LineRC530:12:8+ 03:47.8+ 00:00.6
3324HERNANDEZ NicolasMELOCCO CandiceAlpine A110RGT1630:16:3+ 03:51.3+ 00:03.5
3450JUIF StyveBIEGALKE MaximeRenault Clio RS LineRC530:27:6+ 04:02.6+ 00:11.3
3553ASCENZI ValentinTRAMALONI JulienRenault Clio RS LineRC530:37:4+ 04:12.4+ 00:09.8
3636MONNIN Jean-PaulGILLIOT FranckPeugeot 208 Rally 4RC430:37:5+ 04:12.5+ 00:00.1
3734TAVENEAU SamMARIE CécilePeugeot 208 Rally 4RC430:39:1+ 04:14.1+ 00:01.6
3870MATTEI LoïcMAGAT LaurentRenault Clio RS LineRC530:39:6+ 04:14.6+ 00:00.5
3951PIERI TomDUNAND ArnaudRenault Clio RS LineRC530:41:4+ 04:16.4+ 00:01.8
4020FREDON HugoCOPPA MathieuCitroën C3R531:03:6+ 04:38.6+ 00:22.2
4175TODESCHINI FlorentBARRAL FlorianFord FiestaR2J31:04:9+ 04:39.9+ 00:01.3
4231MARTIN FabriceAMBLARD JuliePeugeot 208 Rally 4RC431:07:5+ 04:42.5+ 00:02.6
4330DUPONT MaxenceGOZET AurélienOpel Corsa GS LineRC431:07:6+ 04:42.6+ 00:00.1
4425BERTRAND GuyRAINCOURT ThibaultAlpine A110 RallyRGT1631:12:8+ 04:47.8+ 00:05.2
4559PONTAL JulienBIAGETTI LoanRenault Clio RS LineRC531:15:0+ 04:50.0+ 00:02.2
4657SARHY JérémyPIERRON AmélieRenault Clio RS LineRC531:19:6+ 04:54.6+ 00:04.6
4744DALMASSO PaulinePEREZ LaétitiaPeugeot 208 Rally 4RC431:20:8+ 04:55.8+ 00:01.2
4842DARMEZIN LucasBISAGNO DavidPeugeot 208 Rally 4RC431:21:5+ 04:56.5+ 00:00.7
4952MATTEI DamienPELAMOURGUES MarineRenault Clio RS LineRC531:24:8+ 04:59.8+ 00:03.3
5062BLONDEL LA ROUGERY BertrandRAFFAELLI YoannRenault Clio RS LineRC531:27:2+ 05:02.2+ 00:02.4
5178GIRAUD GrégoryOUVRY CapucineFord FiestaR2J31:27:4+ 05:02.4+ 00:00.2
5265SANLAVILLE EmilienSANLAVILLE AmauryRenault Clio RS LineRC531:28:2+ 05:03.2+ 00:00.8
5340LEZEAU RomualdBOUDAUD LoïcPeugeot 208 Rally 4RC431:29:2+ 05:04.2+ 00:01.0
5437GANY RehaneLE FLOCH FranckPeugeot 208 Rally 4RC431:33:2+ 05:08.2+ 00:04.0
5554RENSONNET TomHERMAN RenaudRenault Clio RS LineRC531:38:2+ 05:13.2+ 00:05.0
5679BOUCHONNEAU FlorianSILVESTRE CorentinFord FiestaR2J31:41:3+ 05:16.3+ 00:03.1
5767PAGET RichardPOUJOL SébastienRenault Clio RS LineRC531:42:8+ 05:17.8+ 00:01.5
5843CASADIO-TASTU BenjaminMICHELI BenjaminPeugeot 208 Rally 4RC431:47:9+ 05:22.9+ 00:05.1
5963GRANDE JonathanGUIRADO SandrineRenault Clio RS LineRC531:50:6+ 05:25.6+ 00:02.7
6088CALLEA TérenceMAILLEFERT AlexisFord FiestaR2J31:51:5+ 05:26.5+ 00:00.9
6192BERARD PascalBERARD CarolineRenault Clio 4 RSR331:52:6+ 05:27.6+ 00:01.1
6281CONSTANT LouisCHARDON FlorianFord FiestaR2J31:53:4+ 05:28.4+ 00:00.8
6389VANSON TomMALFOY AndyFord FiestaR2J31:55:3+ 05:30.3+ 00:01.9
6480DEYGAS VictorCHARLES MélodieFord FiestaR2J31:58:8+ 05:33.8+ 00:03.5
6576MYR LouisFLAJOLET CamilleFord FiestaR2J31:59:1+ 05:34.1+ 00:00.3
6661ALTHAUS SachaZBINDEN LisianeRenault Clio RS LineRC532:00:9+ 05:35.9+ 00:01.8
6756RAMBAUD SébastienFEBVRE NicolasRenault Clio RS LineRC532:01:9+ 05:36.9+ 00:01.0
6826GODTLER BrunoRONDSTALDER MathieuPorsche 997 GT3GT1032:05:4+ 05:40.4+ 00:03.5
6941BANGUI NazimHEER FrançoisPeugeot 208 Rally 4RC432:11:8+ 05:46.8+ 00:06.4
7087CELLIER ThibaudBRUYERE KévinFord FiestaR2J32:17:5+ 05:52.5+ 00:05.7
7168DUPUY MargotCHAMBELLAND ClioRenault Clio RS LineRC532:21:7+ 05:56.7+ 00:04.2
72125DE SOUSA MathiasCORBINEAU MariePorsche 997 GT3GT1032:32:8+ 06:07.8+ 00:11.1
7385RUMEAU SarahLACRUZ MarineFord FiestaR2J33:02:7+ 06:37.7+ 00:29.9
7472TREVILLY CharleyDODARD CorentinRenault Clio RS LineRC533:12:6+ 06:47.6+ 00:09.9
7583CHATILLON MatteoRICOU BriceFord FiestaR2J33:19:1+ 06:54.1+ 00:06.5
7693BROGLIO AnatoleGUSTIN CédricCitroën DS3R333:30:6+ 07:05.6+ 00:11.5
7766JANNY JérômeGUTIERREZ ClémentRenault Clio RS LineRC533:32:3+ 07:07.3+ 00:01.7
7871SAILLAT YohanKUKULKA SylvainRenault Clio RS LineRC533:57:0+ 07:32.0+ 00:24.7
7977DURAND RomainMERCOIRET GuillaumeFord FiestaR2J34:15:0+ 07:50.0+ 00:18.0
8073NOSJEAN ChristopheSAHRAOUI JulienRenault Clio RS LineRC534:33:4+ 08:08.4+ 00:18.4
8127BOTTIN StéphaneDUGRAVOT LionelPorsche 996 GT3GT1034:34:1+ 08:09.1+ 00:00.7
8222CUNIN EricTOUBON AndréSkoda Fabia RSRR535:59:6+ 09:34.6+ 01:25.5
8374DELASSUS RodrigueLEJOSNE ThomasRenault Clio RS LineRC537:58:5+ 11:33.5+ 01:58.9
8469FILIPE SarahHAILLOUD ManonRenault Clio RS LineRC539:24:8+ 12:59.8+ 01:26.3
8582ROTT AnthonyPACAUD JérémyFord FiestaR2J40:36:9+ 14:11.9+ 01:12.1
0 0 votes
Évaluation de l'article
S’abonner
Notifier de
guest
0 Commentaires
Inline Feedbacks
View all comments